sensor_id;sensor_type;location;lat;lon;timestamp;pressure;altitude;pressure_sealevel;temperature;humidity
69982;BME280;57319;56.274;43.980;2023-08-30T00:00:31;99549.25;;;11.94;82.97
69982;BME280;57319;56.274;43.980;2023-08-30T00:02:57;99549.22;;;11.96;82.96
69982;BME280;57319;56.274;43.980;2023-08-30T00:05:23;99546.56;;;11.99;83.63
69982;BME280;57319;56.274;43.980;2023-08-30T00:07:48;99542.28;;;11.98;84.00
69982;BME280;57319;56.274;43.980;2023-08-30T00:10:14;99541.47;;;11.96;83.56
69982;BME280;57319;56.274;43.980;2023-08-30T00:12:40;99535.47;;;11.95;83.64
69982;BME280;57319;56.274;43.980;2023-08-30T00:15:06;99534.59;;;11.95;83.68
69982;BME280;57319;56.274;43.980;2023-08-30T00:17:32;99552.63;;;11.96;83.38
69982;BME280;57319;56.274;43.980;2023-08-30T00:19:58;99553.50;;;11.97;83.89
69982;BME280;57319;56.274;43.980;2023-08-30T00:22:25;99548.38;;;11.95;83.69
69982;BME280;57319;56.274;43.980;2023-08-30T00:24:53;99546.66;;;11.94;83.59
69982;BME280;57319;56.274;43.980;2023-08-30T00:27:19;99552.66;;;11.93;83.71
69982;BME280;57319;56.274;43.980;2023-08-30T00:29:46;99544.97;;;11.92;82.77
69982;BME280;57319;56.274;43.980;2023-08-30T00:32:12;99541.56;;;11.91;83.18
69982;BME280;57319;56.274;43.980;2023-08-30T00:34:37;99538.09;;;11.91;82.95
69982;BME280;57319;56.274;43.980;2023-08-30T00:37:03;99534.69;;;11.90;83.13
69982;BME280;57319;56.274;43.980;2023-08-30T00:39:29;99538.97;;;11.91;82.93
69982;BME280;57319;56.274;43.980;2023-08-30T00:41:54;99536.41;;;11.91;82.67
69982;BME280;57319;56.274;43.980;2023-08-30T00:44:20;99530.34;;;11.92;82.36
69982;BME280;57319;56.274;43.980;2023-08-30T00:46:46;99529.44;;;11.95;83.51
69982;BME280;57319;56.274;43.980;2023-08-30T00:49:12;99526.91;;;11.92;83.33
69982;BME280;57319;56.274;43.980;2023-08-30T00:51:38;99526.06;;;11.91;83.86
69982;BME280;57319;56.274;43.980;2023-08-30T00:54:04;99532.91;;;11.92;83.70
69982;BME280;57319;56.274;43.980;2023-08-30T00:56:32;99538.97;;;11.91;83.92
69982;BME280;57319;56.274;43.980;2023-08-30T00:58:58;99549.28;;;11.91;84.28
69982;BME280;57319;56.274;43.980;2023-08-30T01:01:24;99554.44;;;11.89;84.49
69982;BME280;57319;56.274;43.980;2023-08-30T01:03:50;99547.53;;;11.92;84.27
69982;BME280;57319;56.274;43.980;2023-08-30T01:06:15;99554.44;;;11.89;84.45
69982;BME280;57319;56.274;43.980;2023-08-30T01:08:42;99556.16;;;11.91;84.36
69982;BME280;57319;56.274;43.980;2023-08-30T01:13:37;99563.94;;;11.89;85.01
69982;BME280;57319;56.274;43.980;2023-08-30T01:16:06;99566.47;;;11.91;84.82
69982;BME280;57319;56.274;43.980;2023-08-30T01:18:34;99562.19;;;11.89;84.93
69982;BME280;57319;56.274;43.980;2023-08-30T01:21:02;99562.97;;;11.93;85.49
69982;BME280;57319;56.274;43.980;2023-08-30T01:23:45;99562.94;;;11.96;85.40
69982;BME280;57319;56.274;43.980;2023-08-30T01:26:45;99562.09;;;11.96;85.39
69982;BME280;57319;56.274;43.980;2023-08-30T01:29:11;99569.00;;;11.95;85.24
69982;BME280;57319;56.274;43.980;2023-08-30T01:31:39;99567.19;;;11.99;84.80
69982;BME280;57319;56.274;43.980;2023-08-30T01:34:06;99574.97;;;11.97;84.76
69982;BME280;57319;56.274;43.980;2023-08-30T01:36:32;99575.00;;;11.96;84.37
69982;BME280;57319;56.274;43.980;2023-08-30T01:38:58;99569.88;;;11.94;84.56
69982;BME280;57319;56.274;43.980;2023-08-30T01:41:26;99567.25;;;11.96;84.04
69982;BME280;57319;56.274;43.980;2023-08-30T01:43:54;99567.25;;;11.96;83.98
69982;BME280;57319;56.274;43.980;2023-08-30T01:46:21;99564.72;;;11.94;83.42
69982;BME280;57319;56.274;43.980;2023-08-30T01:48:47;99564.69;;;11.96;82.85
69982;BME280;57319;56.274;43.980;2023-08-30T01:51:15;99563.75;;;12.00;82.73
69982;BME280;57319;56.274;43.980;2023-08-30T01:53:43;99563.75;;;12.00;82.80
69982;BME280;57319;56.274;43.980;2023-08-30T01:56:10;99562.91;;;11.99;82.52
69982;BME280;57319;56.274;43.980;2023-08-30T01:58:36;99568.06;;;11.99;82.61
69982;BME280;57319;56.274;43.980;2023-08-30T02:01:02;99564.59;;;11.99;82.74
69982;BME280;57319;56.274;43.980;2023-08-30T02:03:27;99568.91;;;12.00;82.71
69982;BME280;57319;56.274;43.980;2023-08-30T02:06:03;99572.31;;;12.00;83.21
69982;BME280;57319;56.274;43.980;2023-08-30T02:08:37;99561.16;;;12.00;83.00
69982;BME280;57319;56.274;43.980;2023-08-30T02:11:10;99583.50;;;12.01;83.00
69982;BME280;57319;56.274;43.980;2023-08-30T02:13:58;99582.63;;;12.00;83.57
69982;BME280;57319;56.274;43.980;2023-08-30T02:16:26;99582.63;;;12.00;83.41
69982;BME280;57319;56.274;43.980;2023-08-30T02:18:53;99586.06;;;12.01;83.31
69982;BME280;57319;56.274;43.980;2023-08-30T02:21:19;99578.34;;;12.01;83.42
69982;BME280;57319;56.274;43.980;2023-08-30T02:23:52;99580.88;;;12.02;83.54
69982;BME280;57319;56.274;43.980;2023-08-30T02:26:21;99583.53;;;11.99;83.54
69982;BME280;57319;56.274;43.980;2023-08-30T02:28:47;99574.06;;;12.00;83.46
69982;BME280;57319;56.274;43.980;2023-08-30T02:31:13;99577.47;;;12.00;83.59
69982;BME280;57319;56.274;43.980;2023-08-30T02:33:38;99581.75;;;12.01;83.53
69982;BME280;57319;56.274;43.980;2023-08-30T02:36:04;99589.41;;;12.04;83.73
69982;BME280;57319;56.274;43.980;2023-08-30T02:38:30;99591.13;;;12.05;83.23
69982;BME280;57319;56.274;43.980;2023-08-30T02:40:56;99595.38;;;12.08;83.61
69982;BME280;57319;56.274;43.980;2023-08-30T02:43:22;99590.22;;;12.08;83.63
69982;BME280;57319;56.274;43.980;2023-08-30T02:45:48;99590.25;;;12.07;83.27
69982;BME280;57319;56.274;43.980;2023-08-30T02:48:14;99591.06;;;12.09;83.24
69982;BME280;57319;56.274;43.980;2023-08-30T02:50:40;99592.72;;;12.11;82.83
69982;BME280;57319;56.274;43.980;2023-08-30T02:53:06;99590.16;;;12.11;82.87
69982;BME280;57319;56.274;43.980;2023-08-30T02:55:34;99592.66;;;12.14;83.35
69982;BME280;57319;56.274;43.980;2023-08-30T02:58:00;99587.44;;;12.17;83.26
69982;BME280;57319;56.274;43.980;2023-08-30T03:00:26;99595.94;;;12.21;83.18
69982;BME280;57319;56.274;43.980;2023-08-30T03:02:51;99596.78;;;12.23;83.40
69982;BME280;57319;56.274;43.980;2023-08-30T03:05:18;99588.91;;;12.28;82.77
69982;BME280;57319;56.274;43.980;2023-08-30T03:07:44;99591.44;;;12.31;82.55
69982;BME280;57319;56.274;43.980;2023-08-30T03:10:11;99593.13;;;12.32;81.87
69982;BME280;57319;56.274;43.980;2023-08-30T03:12:36;99589.63;;;12.34;81.60
69982;BME280;57319;56.274;43.980;2023-08-30T03:15:02;99586.03;;;12.42;81.70
69982;BME280;57319;56.274;43.980;2023-08-30T03:17:30;99580.81;;;12.45;81.12
69982;BME280;57319;56.274;43.980;2023-08-30T03:19:56;99585.91;;;12.48;80.59
69982;BME280;57319;56.274;43.980;2023-08-30T03:22:22;99582.28;;;12.55;79.41
69982;BME280;57319;56.274;43.980;2023-08-30T03:24:48;99577.03;;;12.58;78.60
69982;BME280;57319;56.274;43.980;2023-08-30T03:27:15;99582.94;;;12.63;78.19
69982;BME280;57319;56.274;43.980;2023-08-30T03:29:41;99585.41;;;12.68;78.41
69982;BME280;57319;56.274;43.980;2023-08-30T03:32:07;99587.94;;;12.71;77.23
69982;BME280;57319;56.274;43.980;2023-08-30T03:34:32;99577.50;;;12.76;77.35
69982;BME280;57319;56.274;43.980;2023-08-30T03:36:58;99580.06;;;12.76;77.55
69982;BME280;57319;56.274;43.980;2023-08-30T03:40:00;99580.03;;;12.77;77.75
69982;BME280;57319;56.274;43.980;2023-08-30T03:42:26;99574.81;;;12.79;75.78
69982;BME280;57319;56.274;43.980;2023-08-30T03:44:51;99579.06;;;12.81;74.53
69982;BME280;57319;56.274;43.980;2023-08-30T03:47:17;99575.44;;;12.88;73.96
69982;BME280;57319;56.274;43.980;2023-08-30T03:49:43;99580.44;;;12.96;72.89
69982;BME280;57319;56.274;43.980;2023-08-30T03:52:09;99580.25;;;13.04;72.73
69982;BME280;57319;56.274;43.980;2023-08-30T03:54:35;99575.78;;;13.11;71.57
69982;BME280;57319;56.274;43.980;2023-08-30T03:57:00;99584.22;;;13.16;70.05
69982;BME280;57319;56.274;43.980;2023-08-30T03:59:26;99586.66;;;13.22;68.71
69982;BME280;57319;56.274;43.980;2023-08-30T04:01:54;99577.94;;;13.26;67.01
69982;BME280;57319;56.274;43.980;2023-08-30T04:04:19;99584.78;;;13.29;64.38
69982;BME280;57319;56.274;43.980;2023-08-30T04:06:45;99584.63;;;13.33;65.10
69982;BME280;57319;56.274;43.980;2023-08-30T04:09:10;99587.16;;;13.36;64.91
69982;BME280;57319;56.274;43.980;2023-08-30T04:11:36;99593.22;;;13.34;64.09
69982;BME280;57319;56.274;43.980;2023-08-30T04:14:02;99592.34;;;13.36;63.57
69982;BME280;57319;56.274;43.980;2023-08-30T04:16:28;99589.66;;;13.41;62.84
69982;BME280;57319;56.274;43.980;2023-08-30T04:18:54;99591.38;;;13.40;63.97
69982;BME280;57319;56.274;43.980;2023-08-30T04:21:19;99591.41;;;13.39;65.24
69982;BME280;57319;56.274;43.980;2023-08-30T04:23:45;99596.63;;;13.37;64.97
69982;BME280;57319;56.274;43.980;2023-08-30T04:26:11;99598.38;;;13.37;65.07
69982;BME280;57319;56.274;43.980;2023-08-30T04:28:36;99598.44;;;13.32;65.15
69982;BME280;57319;56.274;43.980;2023-08-30T04:31:02;99608.72;;;13.37;64.88
69982;BME280;57319;56.274;43.980;2023-08-30T04:33:28;99606.13;;;13.37;65.40
69982;BME280;57319;56.274;43.980;2023-08-30T04:35:54;99605.25;;;13.36;66.16
69982;BME280;57319;56.274;43.980;2023-08-30T04:38:20;99602.63;;;13.38;66.48
69982;BME280;57319;56.274;43.980;2023-08-30T04:40:49;99597.34;;;13.43;66.20
69982;BME280;57319;56.274;43.980;2023-08-30T04:43:15;99592.06;;;13.47;65.86
69982;BME280;57319;56.274;43.980;2023-08-30T04:45:41;99596.13;;;13.56;65.78
69982;BME280;57319;56.274;43.980;2023-08-30T04:48:07;99599.41;;;13.61;65.64
69982;BME280;57319;56.274;43.980;2023-08-30T04:50:33;99595.72;;;13.71;65.55
69982;BME280;57319;56.274;43.980;2023-08-30T04:52:58;99597.38;;;13.74;65.21
69982;BME280;57319;56.274;43.980;2023-08-30T04:55:24;99597.22;;;13.79;64.80
69982;BME280;57319;56.274;43.980;2023-08-30T04:57:50;99599.72;;;13.82;64.92
69982;BME280;57319;56.274;43.980;2023-08-30T05:00:17;99601.28;;;13.87;65.19
69982;BME280;57319;56.274;43.980;2023-08-30T05:02:43;99595.94;;;13.94;65.63
69982;BME280;57319;56.274;43.980;2023-08-30T05:05:12;99596.91;;;13.89;65.52
69982;BME280;57319;56.274;43.980;2023-08-30T05:07:38;99598.53;;;13.94;65.60
69982;BME280;57319;56.274;43.980;2023-08-30T05:10:05;99602.81;;;13.95;65.93
69982;BME280;57319;56.274;43.980;2023-08-30T05:12:33;99596.81;;;13.93;66.47
69982;BME280;57319;56.274;43.980;2023-08-30T05:14:59;99595.97;;;13.92;66.45
69982;BME280;57319;56.274;43.980;2023-08-30T05:17:25;99592.38;;;13.98;66.12
69982;BME280;57319;56.274;43.980;2023-08-30T05:19:53;99599.91;;;14.05;65.87
69982;BME280;57319;56.274;43.980;2023-08-30T05:22:19;99593.75;;;14.10;65.52
69982;BME280;57319;56.274;43.980;2023-08-30T05:24:45;99591.78;;;14.18;65.75
69982;BME280;57319;56.274;43.980;2023-08-30T05:27:10;99593.28;;;14.25;65.83
69982;BME280;57319;56.274;43.980;2023-08-30T05:29:37;99593.81;;;14.36;65.71
69982;BME280;57319;56.274;43.980;2023-08-30T05:32:03;99593.69;;;14.39;65.90
69982;BME280;57319;56.274;43.980;2023-08-30T05:34:28;99597.81;;;14.47;65.69
69982;BME280;57319;56.274;43.980;2023-08-30T05:36:54;99594.22;;;14.51;64.19
69982;BME280;57319;56.274;43.980;2023-08-30T05:39:20;99594.03;;;14.57;64.00
69982;BME280;57319;56.274;43.980;2023-08-30T05:41:46;99602.50;;;14.62;63.35
69982;BME280;57319;56.274;43.980;2023-08-30T05:44:11;99602.44;;;14.65;62.69
69982;BME280;57319;56.274;43.980;2023-08-30T05:46:37;99603.97;;;14.71;62.65
69982;BME280;57319;56.274;43.980;2023-08-30T05:49:03;99602.03;;;14.78;62.66
69982;BME280;57319;56.274;43.980;2023-08-30T05:51:29;99600.78;;;14.89;62.52
69982;BME280;57319;56.274;43.980;2023-08-30T05:53:54;99614.34;;;14.98;62.42
69982;BME280;57319;56.274;43.980;2023-08-30T05:56:20;99611.47;;;15.05;62.99
69982;BME280;57319;56.274;43.980;2023-08-30T05:58:46;99612.88;;;15.16;62.73
69982;BME280;57319;56.274;43.980;2023-08-30T06:01:11;99618.00;;;15.17;62.16
69982;BME280;57319;56.274;43.980;2023-08-30T06:03:37;99616.06;;;15.24;61.59
69982;BME280;57319;56.274;43.980;2023-08-30T06:06:03;99624.53;;;15.29;60.98
69982;BME280;57319;56.274;43.980;2023-08-30T06:08:29;99624.94;;;15.42;61.02
69982;BME280;57319;56.274;43.980;2023-08-30T06:10:55;99619.50;;;15.50;60.35
69982;BME280;57319;56.274;43.980;2023-08-30T06:13:21;99615.03;;;15.53;59.29
69982;BME280;57319;56.274;43.980;2023-08-30T06:15:50;99625.28;;;15.58;57.16
69982;BME280;57319;56.274;43.980;2023-08-30T06:18:16;99617.31;;;15.63;57.01
69982;BME280;57319;56.274;43.980;2023-08-30T06:20:42;99617.81;;;15.72;55.65
69982;BME280;57319;56.274;43.980;2023-08-30T06:23:08;99614.16;;;15.78;55.16
69982;BME280;57319;56.274;43.980;2023-08-30T06:25:34;99614.03;;;15.83;55.07
69982;BME280;57319;56.274;43.980;2023-08-30T06:28:00;99610.31;;;15.90;55.26
69982;BME280;57319;56.274;43.980;2023-08-30T06:30:28;99617.97;;;15.93;55.31
69982;BME280;57319;56.274;43.980;2023-08-30T06:32:55;99612.59;;;15.98;55.44
69982;BME280;57319;56.274;43.980;2023-08-30T06:35:22;99606.56;;;15.97;54.93
69982;BME280;57319;56.274;43.980;2023-08-30T06:37:48;99605.56;;;16.01;55.05
69982;BME280;57319;56.274;43.980;2023-08-30T06:40:14;99608.78;;;16.08;54.99
69982;BME280;57319;56.274;43.980;2023-08-30T06:42:40;99604.31;;;16.11;55.07
69982;BME280;57319;56.274;43.980;2023-08-30T06:45:06;99607.56;;;16.17;55.69
69982;BME280;57319;56.274;43.980;2023-08-30T06:47:32;99605.78;;;16.19;55.44
69982;BME280;57319;56.274;43.980;2023-08-30T06:49:58;99602.16;;;16.23;54.28
69982;BME280;57319;56.274;43.980;2023-08-30T06:52:24;99602.72;;;16.31;54.46
69982;BME280;57319;56.274;43.980;2023-08-30T06:54:50;99605.03;;;16.37;54.57
69982;BME280;57319;56.274;43.980;2023-08-30T06:57:16;99601.31;;;16.44;54.65
69982;BME280;57319;56.274;43.980;2023-08-30T06:59:41;99601.13;;;16.49;53.82
69982;BME280;57319;56.274;43.980;2023-08-30T07:02:08;99593.94;;;16.56;54.77
69982;BME280;57319;56.274;43.980;2023-08-30T07:04:34;99595.44;;;16.61;54.43
69982;BME280;57319;56.274;43.980;2023-08-30T07:06:59;99598.06;;;16.61;53.29
69982;BME280;57319;56.274;43.980;2023-08-30T07:09:25;99596.88;;;16.69;53.58
69982;BME280;57319;56.274;43.980;2023-08-30T07:11:55;99597.47;;;16.75;53.31
69982;BME280;57319;56.274;43.980;2023-08-30T07:14:21;99590.59;;;16.74;52.67
69982;BME280;57319;56.274;43.980;2023-08-30T07:16:47;99589.75;;;16.74;52.02
69982;BME280;57319;56.274;43.980;2023-08-30T07:19:15;99593.19;;;16.74;52.32
69982;BME280;57319;56.274;43.980;2023-08-30T07:21:42;99593.13;;;16.76;51.99
69982;BME280;57319;56.274;43.980;2023-08-30T07:24:08;99588.44;;;16.84;52.11
69982;BME280;57319;56.274;43.980;2023-08-30T07:26:35;99584.81;;;16.90;51.57
69982;BME280;57319;56.274;43.980;2023-08-30T07:29:02;99589.53;;;17.01;52.05
69982;BME280;57319;56.274;43.980;2023-08-30T07:31:31;99589.22;;;17.08;52.08
69982;BME280;57319;56.274;43.980;2023-08-30T07:33:57;99594.19;;;17.15;52.30
69982;BME280;57319;56.274;43.980;2023-08-30T07:36:23;99593.16;;;17.19;51.57
69982;BME280;57319;56.274;43.980;2023-08-30T07:38:49;99592.88;;;17.25;51.51
69982;BME280;57319;56.274;43.980;2023-08-30T07:41:15;99591.00;;;17.28;50.98
69982;BME280;57319;56.274;43.980;2023-08-30T07:43:40;99596.25;;;17.27;50.85
69982;BME280;57319;56.274;43.980;2023-08-30T07:46:06;99594.44;;;17.29;50.47
69982;BME280;57319;56.274;43.980;2023-08-30T07:48:32;99584.69;;;17.34;50.47
69982;BME280;57319;56.274;43.980;2023-08-30T07:50:58;99586.22;;;17.38;50.61
69982;BME280;57319;56.274;43.980;2023-08-30T07:53:24;99584.13;;;17.46;50.49
69982;BME280;57319;56.274;43.980;2023-08-30T07:55:50;99599.22;;;17.59;50.56
69982;BME280;57319;56.274;43.980;2023-08-30T07:58:17;99592.66;;;17.69;50.48
69982;BME280;57319;56.274;43.980;2023-08-30T08:00:42;99587.19;;;17.75;49.79
69982;BME280;57319;56.274;43.980;2023-08-30T08:03:09;99579.09;;;17.81;49.85
69982;BME280;57319;56.274;43.980;2023-08-30T08:05:36;99576.06;;;17.72;48.99
69982;BME280;57319;56.274;43.980;2023-08-30T08:08:01;99573.22;;;17.78;49.23
69982;BME280;57319;56.274;43.980;2023-08-30T08:10:32;99570.53;;;17.79;49.26
69982;BME280;57319;56.274;43.980;2023-08-30T08:12:59;99567.78;;;17.83;48.86
69982;BME280;57319;56.274;43.980;2023-08-30T08:15:25;99563.00;;;17.73;48.57
69982;BME280;57319;56.274;43.980;2023-08-30T08:17:50;99576.56;;;17.80;48.87
69982;BME280;57319;56.274;43.980;2023-08-30T08:20:16;99565.31;;;17.79;48.06
69982;BME280;57319;56.274;43.980;2023-08-30T08:22:42;99560.94;;;17.80;47.76
69982;BME280;57319;56.274;43.980;2023-08-30T08:25:08;99562.50;;;17.84;47.55
69982;BME280;57319;56.274;43.980;2023-08-30T08:27:36;99569.34;;;17.87;47.96
69982;BME280;57319;56.274;43.980;2023-08-30T08:30:03;99558.78;;;17.90;47.15
69982;BME280;57319;56.274;43.980;2023-08-30T08:32:31;99558.91;;;17.87;47.25
69982;BME280;57319;56.274;43.980;2023-08-30T08:34:57;99565.38;;;17.99;47.65
69982;BME280;57319;56.274;43.980;2023-08-30T08:37:23;99572.19;;;18.01;47.35
69982;BME280;57319;56.274;43.980;2023-08-30T08:39:49;99552.69;;;18.10;46.72
69982;BME280;57319;56.274;43.980;2023-08-30T08:42:20;99564.56;;;18.16;46.18
69982;BME280;57319;56.274;43.980;2023-08-30T08:44:47;99565.88;;;18.24;46.75
69982;BME280;57319;56.274;43.980;2023-08-30T08:47:16;99563.00;;;18.30;46.15
69982;BME280;57319;56.274;43.980;2023-08-30T08:49:43;99568.44;;;18.43;45.91
69982;BME280;57319;56.274;43.980;2023-08-30T08:52:09;99567.84;;;18.56;45.84
69982;BME280;57319;56.274;43.980;2023-08-30T08:54:39;99570.84;;;18.65;45.79
69982;BME280;57319;56.274;43.980;2023-08-30T08:57:06;99579.09;;;18.75;45.90
69982;BME280;57319;56.274;43.980;2023-08-30T08:59:32;99576.16;;;18.64;45.63
69982;BME280;57319;56.274;43.980;2023-08-30T09:02:02;99577.59;;;18.70;46.09
69982;BME280;57319;56.274;43.980;2023-08-30T09:04:31;99574.78;;;18.74;46.32
69982;BME280;57319;56.274;43.980;2023-08-30T09:06:58;99566.56;;;18.82;46.38
69982;BME280;57319;56.274;43.980;2023-08-30T09:09:25;99575.25;;;18.82;46.06
69982;BME280;57319;56.274;43.980;2023-08-30T09:11:52;99576.94;;;18.84;46.43
69982;BME280;57319;56.274;43.980;2023-08-30T09:14:18;99573.13;;;18.91;46.19
69982;BME280;57319;56.274;43.980;2023-08-30T09:16:57;99568.66;;;18.93;46.20
69982;BME280;57319;56.274;43.980;2023-08-30T09:19:24;99570.69;;;18.88;46.08
69982;BME280;57319;56.274;43.980;2023-08-30T09:21:57;99569.78;;;18.87;45.98
69982;BME280;57319;56.274;43.980;2023-08-30T09:24:24;99572.28;;;18.90;45.84
69982;BME280;57319;56.274;43.980;2023-08-30T09:26:54;99577.34;;;18.93;45.86
69982;BME280;57319;56.274;43.980;2023-08-30T09:29:21;99572.72;;;18.98;45.62
69982;BME280;57319;56.274;43.980;2023-08-30T09:31:55;99572.34;;;19.06;45.14
69982;BME280;57319;56.274;43.980;2023-08-30T09:34:26;99564.97;;;19.14;45.72
69982;BME280;57319;56.274;43.980;2023-08-30T09:36:52;99570.97;;;19.17;45.40
69982;BME280;57319;56.274;43.980;2023-08-30T09:39:18;99565.25;;;19.26;45.26
69982;BME280;57319;56.274;43.980;2023-08-30T09:41:46;99566.78;;;19.30;44.76
69982;BME280;57319;56.274;43.980;2023-08-30T09:44:13;99567.41;;;19.35;45.17
69982;BME280;57319;56.274;43.980;2023-08-30T09:46:46;99567.13;;;19.24;45.86
69982;BME280;57319;56.274;43.980;2023-08-30T09:49:12;99566.03;;;19.28;45.98
69982;BME280;57319;56.274;43.980;2023-08-30T09:51:40;99571.09;;;19.31;46.39
69982;BME280;57319;56.274;43.980;2023-08-30T09:54:15;99568.50;;;19.31;45.56
69982;BME280;57319;56.274;43.980;2023-08-30T09:56:45;99574.47;;;19.33;46.18
69982;BME280;57319;56.274;43.980;2023-08-30T09:59:13;99581.59;;;19.47;46.46
69982;BME280;57319;56.274;43.980;2023-08-30T10:01:43;99574.50;;;19.49;46.55
69982;BME280;57319;56.274;43.980;2023-08-30T10:04:11;99575.03;;;19.56;46.65
69982;BME280;57319;56.274;43.980;2023-08-30T10:06:39;99562.97;;;19.53;45.93
69982;BME280;57319;56.274;43.980;2023-08-30T10:09:06;99569.63;;;19.59;45.48
69982;BME280;57319;56.274;43.980;2023-08-30T10:11:35;99567.03;;;19.59;46.00
69982;BME280;57319;56.274;43.980;2023-08-30T10:14:08;99551.94;;;19.48;45.59
69982;BME280;57319;56.274;43.980;2023-08-30T10:16:44;99557.34;;;19.27;47.02
69982;BME280;57319;56.274;43.980;2023-08-30T10:19:20;99553.75;;;19.30;46.90
69982;BME280;57319;56.274;43.980;2023-08-30T10:22:11;99559.56;;;19.35;47.01
69982;BME280;57319;56.274;43.980;2023-08-30T10:24:46;99562.75;;;19.24;46.64
69982;BME280;57319;56.274;43.980;2023-08-30T10:27:14;99566.13;;;19.26;45.88
69982;BME280;57319;56.274;43.980;2023-08-30T10:29:43;99569.00;;;19.04;46.44
69982;BME280;57319;56.274;43.980;2023-08-30T10:32:09;99574.38;;;18.82;47.09
69982;BME280;57319;56.274;43.980;2023-08-30T10:34:36;99567.34;;;18.84;47.20
69982;BME280;57319;56.274;43.980;2023-08-30T10:37:05;99567.22;;;19.05;48.35
69982;BME280;57319;56.274;43.980;2023-08-30T10:39:36;99572.34;;;19.06;48.40
69982;BME280;57319;56.274;43.980;2023-08-30T10:42:10;99571.56;;;18.87;48.77
69982;BME280;57319;56.274;43.980;2023-08-30T10:44:49;99581.13;;;18.86;48.77
69982;BME280;57319;56.274;43.980;2023-08-30T10:47:26;99572.81;;;18.97;48.17
69982;BME280;57319;56.274;43.980;2023-08-30T10:49:57;99574.41;;;19.17;47.95
69982;BME280;57319;56.274;43.980;2023-08-30T10:52:24;99573.91;;;19.44;47.04
69982;BME280;57319;56.274;43.980;2023-08-30T10:54:50;99569.72;;;20.07;45.68
69982;BME280;57319;56.274;43.980;2023-08-30T10:57:26;99567.84;;;20.25;45.19
69982;BME280;57319;56.274;43.980;2023-08-30T11:00:20;99577.81;;;20.34;45.34
69982;BME280;57319;56.274;43.980;2023-08-30T11:02:50;99571.91;;;19.98;46.05
69982;BME280;57319;56.274;43.980;2023-08-30T11:05:17;99575.53;;;19.96;46.78
69982;BME280;57319;56.274;43.980;2023-08-30T11:07:46;99575.31;;;21.52;43.45
69982;BME280;57319;56.274;43.980;2023-08-30T11:10:14;99566.88;;;21.18;42.97
69982;BME280;57319;56.274;43.980;2023-08-30T11:12:41;99573.72;;;20.76;43.86
69982;BME280;57319;56.274;43.980;2023-08-30T11:15:09;99567.81;;;21.17;43.10
69982;BME280;57319;56.274;43.980;2023-08-30T11:17:34;99583.25;;;20.77;44.18
69982;BME280;57319;56.274;43.980;2023-08-30T11:20:09;99575.50;;;20.60;44.26
69982;BME280;57319;56.274;43.980;2023-08-30T11:22:46;99580.41;;;20.34;44.23
69982;BME280;57319;56.274;43.980;2023-08-30T11:25:13;99581.94;;;20.38;44.45
69982;BME280;57319;56.274;43.980;2023-08-30T11:27:40;99577.38;;;20.10;45.24
69982;BME280;57319;56.274;43.980;2023-08-30T11:30:07;99575.09;;;19.88;45.86
69982;BME280;57319;56.274;43.980;2023-08-30T11:32:39;99580.88;;;19.61;46.86
69982;BME280;57319;56.274;43.980;2023-08-30T11:35:06;99582.75;;;19.41;47.82
69982;BME280;57319;56.274;43.980;2023-08-30T11:37:33;99570.13;;;20.31;46.37
69982;BME280;57319;56.274;43.980;2023-08-30T11:40:02;99572.69;;;20.00;46.52
69982;BME280;57319;56.274;43.980;2023-08-30T11:42:33;99565.09;;;19.96;46.24
69982;BME280;57319;56.274;43.980;2023-08-30T11:45:00;99571.84;;;20.32;46.34
69982;BME280;57319;56.274;43.980;2023-08-30T11:47:33;99560.63;;;20.60;44.95
69982;BME280;57319;56.274;43.980;2023-08-30T11:50:00;99566.44;;;20.81;44.65
69982;BME280;57319;56.274;43.980;2023-08-30T11:52:26;99558.50;;;22.13;41.65
69982;BME280;57319;56.274;43.980;2023-08-30T11:54:52;99579.41;;;22.00;40.90
69982;BME280;57319;56.274;43.980;2023-08-30T11:57:19;99568.00;;;22.01;41.46
69982;BME280;57319;56.274;43.980;2023-08-30T11:59:45;99564.50;;;21.59;42.45
69982;BME280;57319;56.274;43.980;2023-08-30T12:02:14;99563.44;;;21.47;42.64
69982;BME280;57319;56.274;43.980;2023-08-30T12:04:44;99567.72;;;21.48;41.89
69982;BME280;57319;56.274;43.980;2023-08-30T12:07:41;99560.91;;;21.74;42.27
69982;BME280;57319;56.274;43.980;2023-08-30T12:10:11;99580.13;;;21.15;43.32
69982;BME280;57319;56.274;43.980;2023-08-30T12:12:38;99572.38;;;20.69;43.96
69982;BME280;57319;56.274;43.980;2023-08-30T12:15:10;99571.34;;;21.02;43.25
69982;BME280;57319;56.274;43.980;2023-08-30T12:17:37;99574.75;;;21.91;42.04
69982;BME280;57319;56.274;43.980;2023-08-30T12:20:03;99580.97;;;22.72;40.53
69982;BME280;57319;56.274;43.980;2023-08-30T12:22:41;99585.25;;;21.76;42.52
69982;BME280;57319;56.274;43.980;2023-08-30T12:25:17;99584.63;;;21.28;42.88
69982;BME280;57319;56.274;43.980;2023-08-30T12:27:46;99592.78;;;21.23;43.52
69982;BME280;57319;56.274;43.980;2023-08-30T12:30:13;99586.81;;;21.35;43.31
69982;BME280;57319;56.274;43.980;2023-08-30T12:32:40;99577.19;;;21.50;43.25
69982;BME280;57319;56.274;43.980;2023-08-30T12:35:06;99578.28;;;22.04;42.14
69982;BME280;57319;56.274;43.980;2023-08-30T12:37:31;99580.50;;;22.10;41.36
69982;BME280;57319;56.274;43.980;2023-08-30T12:39:57;99578.16;;;21.64;42.28
69982;BME280;57319;56.274;43.980;2023-08-30T12:42:23;99571.50;;;22.14;41.81
69982;BME280;57319;56.274;43.980;2023-08-30T12:44:48;99579.16;;;22.72;40.84
69982;BME280;57319;56.274;43.980;2023-08-30T12:47:14;99578.41;;;23.75;39.35
69982;BME280;57319;56.274;43.980;2023-08-30T12:49:40;99584.94;;;23.43;39.77
69982;BME280;57319;56.274;43.980;2023-08-30T12:52:06;99579.69;;;23.43;39.70
69982;BME280;57319;56.274;43.980;2023-08-30T12:54:32;99584.72;;;22.67;40.70